Terminal Aerodrome Forecast
Issued by NWS

Home | Current Version | Previous Version | Text Only | Print | Product List | Glossary On
Versions: 1 2 3 4 5 6 7 8 9 10 11 12 13 14 15 16 17
000
FTUS42 KFFC 301232 AAA
TAFPDK
TAF AMD
KPDK 301232Z 3013/3112 07005KT P6SM -SHRA SCT025 BKN050
      TEMPO 3013/3015 VRB10G18KT 3SM TSRA BKN010CB
     FM301500 09010KT 6SM -SHRA BR BKN020 BKN100
     FM301800 09008KT P6SM VCSH BKN035
      TEMPO 3018/3022 5SM TSRA BKN025CB
     FM310100 10003KT P6SM SCT030 BKN100
     FM310600 10003KT 3SM BR BKN005 OVC030=

USA.gov is the U.S. government's official web portal to all federal, state and local government web resources and services.